Observations for JERSEY AIRPORT, United Kingdom (EGJJ)

EGJJ 170050Z AUTO 02006KT 9999 NCD 14/14 Q1017  
EGJJ 170020Z AUTO 01005KT 9999 NCD 14/13 Q1018  
EGJJ 162350Z AUTO 36005KT 9999 NCD 14/14 Q1018  
EGJJ 162320Z AUTO 34004KT 310V010 9999 NCD 14/13 Q1018  
EGJJ 162250Z AUTO 35004KT 9999 NCD 15/14 Q1018  
EGJJ 162150Z AUTO 01003KT 330V040 9999 NCD 15/13 Q1018  
EGJJ 162120Z AUTO 36003KT 310V030 9999 NCD 15/13 Q1018  
EGJJ 162050Z AUTO 02006KT 9999 NCD 16/13 Q1018  
EGJJ 162020Z AUTO 02005KT 9999 NCD 16/13 Q1018  
EGJJ 161950Z 02005KT CAVOK 17/13 Q1018  
EGJJ 161920Z 01006KT 340V040 CAVOK 18/13 Q1018  
EGJJ 161850Z 01007KT CAVOK 19/13 Q1018  
EGJJ 161820Z 01006KT 320V040 CAVOK 19/13 Q1018  
EGJJ 161750Z 36006KT 330V040 CAVOK 20/13 Q1018  
EGJJ 161720Z 01007KT 330V040 9999 FEW020 20/13 Q1018
EGJJ 161650Z 36007KT 320V040 9999 FEW020 19/13 Q1018
EGJJ 161620Z 35006KT 310V060 9999 FEW023 21/13 Q1018
EGJJ 161520Z 35006KT 280V040 9999 FEW023 21/13 Q1018
EGJJ 161450Z 36006KT 290V030 9999 FEW023 21/14 Q1019
EGJJ 161420Z 36007KT 310V030 9999 FEW023 21/14 Q1019
EGJJ 161350Z 34006KT 300V030 9999 FEW023 21/14 Q1019
EGJJ 161320Z 35006KT 290V050 9999 FEW022 22/14 Q1019
EGJJ 161250Z 34006KT 290V040 9999 FEW022 21/14 Q1019
EGJJ 161220Z 34006KT 300V050 9999 FEW022 21/14 Q1019
EGJJ 161150Z 02005KT 320V120 9999 FEW021 21/14 Q1019
EGJJ 161120Z VRB06KT 9999 FEW023 22/14 Q1019
EGJJ 161050Z VRB03KT 9999 FEW020 21/14 Q1019
EGJJ 161020Z 23006KT 200V280 9999 FEW018 20/14 Q1019
EGJJ 160950Z 21005KT 150V250 9999 FEW017 19/14 Q1019
EGJJ 160920Z 25006KT 230V290 9999 FEW017 20/14 Q1019
EGJJ 160850Z VRB03KT 9999 FEW017 20/14 Q1019
EGJJ 160820Z 04005KT 350V090 9999 FEW012 18/14 Q1019
EGJJ 160750Z 04005KT 010V090 9999 FEW010 18/15 Q1020
EGJJ 160720Z 05006KT 020V080 9999 FEW008 17/15 Q1019
EGJJ 160650Z 05006KT 020V080 9999 FEW008 17/15 Q1020
EGJJ 160620Z 05006KT 9999 FEW008 15/14 Q1020
EGJJ 160550Z 06005KT 9999 FEW010 15/13 Q1019
EGJJ 160520Z 06005KT 9999 FEW010 14/13 Q1019
EGJJ 160450Z 07004KT 9999 FEW012 13/12 Q1019
EGJJ 160420Z AUTO 08004KT 9999 NCD 13/12 Q1019  
EGJJ 160350Z AUTO 08004KT 9999 NCD 13/12 Q1019  
EGJJ 160320Z AUTO 07006KT 9999 NCD 13/12 Q1019  
EGJJ 160250Z AUTO 07005KT 9999 NCD 13/12 Q1019  
EGJJ 160220Z AUTO 07004KT 9999 NCD 12/11 Q1020  
EGJJ 160150Z AUTO 08006KT 9999 NCD 12/11 Q1020  
EGJJ 160120Z AUTO 08005KT 9999 NCD 12/11 Q1020  
EGJJ 160050Z AUTO 09006KT 9999 NCD 12/10 Q1020  
EGJJ 160020Z AUTO 09008KT 9999 NCD 12/10 Q1020